createdAt,value
2017-04-17T00:00:36.659Z,8.02
2017-04-17T00:01:38.081Z,7.84
2017-04-17T00:02:39.501Z,7.97
2017-04-17T00:03:40.919Z,8.10
2017-04-17T00:04:42.339Z,8.10
2017-04-17T00:05:43.762Z,8.04
2017-04-17T00:06:45.178Z,7.99
2017-04-17T00:07:46.604Z,8.03
2017-04-17T00:08:48.026Z,8.12
2017-04-17T00:09:49.449Z,7.99
2017-04-17T00:10:50.870Z,8.02
2017-04-17T00:11:52.287Z,8.21
2017-04-17T00:12:53.708Z,7.92
2017-04-17T00:13:55.127Z,8.00
2017-04-17T00:14:56.551Z,7.81
2017-04-17T00:15:57.972Z,7.84
2017-04-17T00:16:59.401Z,7.90
2017-04-17T00:18:00.821Z,8.00
2017-04-17T00:19:02.239Z,7.97
2017-04-17T00:20:03.659Z,7.99
2017-04-17T00:21:05.091Z,8.02
2017-04-17T00:22:06.464Z,8.08
2017-04-17T00:23:07.891Z,8.04
2017-04-17T00:24:09.311Z,7.93
2017-04-17T00:25:10.727Z,8.04
2017-04-17T00:26:12.146Z,7.93
2017-04-17T00:27:13.574Z,7.87
2017-04-17T00:28:15.047Z,7.75
2017-04-17T00:29:16.466Z,7.92
2017-04-17T00:30:17.892Z,7.81
2017-04-17T00:31:19.312Z,7.96
2017-04-17T00:32:20.735Z,7.72
2017-04-17T00:33:22.115Z,7.75
2017-04-17T00:34:23.536Z,7.85
2017-04-17T00:35:24.974Z,7.77
2017-04-17T00:36:26.391Z,7.56
2017-04-17T00:37:27.814Z,7.75
2017-04-17T00:38:29.235Z,7.84
2017-04-17T00:39:30.660Z,7.87
2017-04-17T00:40:32.081Z,7.92
2017-04-17T00:41:33.513Z,7.90
2017-04-17T00:42:34.934Z,7.89
2017-04-17T00:43:36.352Z,7.84
2017-04-17T00:44:37.780Z,7.75
2017-04-17T00:45:39.202Z,7.84
2017-04-17T00:46:40.628Z,7.74
2017-04-17T00:47:42.049Z,7.81
2017-04-17T00:48:43.470Z,7.69
2017-04-17T00:49:44.902Z,7.82
2017-04-17T00:50:46.336Z,7.89
2017-04-17T00:51:47.758Z,7.72
2017-04-17T00:52:49.187Z,7.81
2017-04-17T00:53:50.612Z,7.67
2017-04-17T00:54:52.030Z,7.67
2017-04-17T00:55:53.458Z,7.52
2017-04-17T00:56:54.879Z,7.62
2017-04-17T00:57:56.297Z,7.75
2017-04-17T00:58:57.722Z,7.63
2017-04-17T00:59:59.153Z,7.69
2017-04-17T01:01:00.575Z,7.89
2017-04-17T01:02:02.003Z,7.62
2017-04-17T01:03:03.427Z,7.71
2017-04-17T01:04:04.845Z,7.58
2017-04-17T01:05:06.276Z,7.59
2017-04-17T01:06:07.701Z,7.55
2017-04-17T01:07:09.122Z,7.71
2017-04-17T01:08:10.540Z,7.74
2017-04-17T01:09:11.961Z,7.59
2017-04-17T01:10:13.387Z,7.72
2017-04-17T01:11:14.806Z,7.55
2017-04-17T01:12:16.228Z,7.78
2017-04-17T01:13:17.649Z,7.72
2017-04-17T01:14:19.078Z,7.75
2017-04-17T01:15:20.500Z,7.71
2017-04-17T01:16:21.921Z,7.58
2017-04-17T01:17:23.345Z,7.44
2017-04-17T01:18:24.763Z,7.56
2017-04-17T01:19:26.183Z,7.44
2017-04-17T01:20:27.610Z,7.41
2017-04-17T01:21:29.041Z,7.35
2017-04-17T01:22:30.459Z,7.26
2017-04-17T01:23:31.890Z,7.41
2017-04-17T01:24:33.312Z,7.40
2017-04-17T01:25:34.736Z,7.53
2017-04-17T01:26:36.154Z,7.59
2017-04-17T01:27:37.584Z,7.44
2017-04-17T01:28:39.009Z,7.40
2017-04-17T01:29:40.427Z,7.34
2017-04-17T01:30:41.853Z,7.49
2017-04-17T01:31:43.274Z,7.45
2017-04-17T01:32:44.695Z,7.47
2017-04-17T01:33:46.116Z,7.40
2017-04-17T01:34:47.552Z,7.22
2017-04-17T01:35:48.967Z,7.29
2017-04-17T01:36:50.387Z,7.19
2017-04-17T01:37:51.811Z,7.41
2017-04-17T01:38:53.235Z,7.24
2017-04-17T01:39:54.658Z,7.07
2017-04-17T01:40:56.076Z,6.90
2017-04-17T01:41:57.497Z,7.02
2017-04-17T01:42:58.921Z,6.91
2017-04-17T01:44:00.345Z,6.87
2017-04-17T01:45:01.773Z,6.73
2017-04-17T01:46:03.190Z,6.86
2017-04-17T01:47:04.621Z,6.98
2017-04-17T01:48:06.041Z,7.12
2017-04-17T01:49:07.460Z,7.05
2017-04-17T01:50:08.901Z,7.02
2017-04-17T01:51:10.328Z,6.83
2017-04-17T01:52:11.748Z,6.68
2017-04-17T01:53:13.178Z,6.79
2017-04-17T01:54:14.599Z,6.69
2017-04-17T01:55:16.025Z,6.80
2017-04-17T01:56:17.446Z,6.84
2017-04-17T01:57:18.881Z,6.80
2017-04-17T01:58:20.292Z,6.71
2017-04-17T01:59:21.713Z,6.73
2017-04-17T02:00:23.136Z,6.80
2017-04-17T02:01:24.556Z,6.90
2017-04-17T02:02:25.975Z,6.87
2017-04-17T02:03:27.418Z,7.12
2017-04-17T02:04:28.842Z,7.08
2017-04-17T02:05:30.269Z,6.95
2017-04-17T02:06:31.686Z,7.02
2017-04-17T02:07:33.161Z,6.97
2017-04-17T02:08:34.573Z,6.80
2017-04-17T02:09:35.994Z,6.76
2017-04-17T02:10:37.422Z,6.77
2017-04-17T02:11:38.843Z,6.80
2017-04-17T02:12:40.276Z,6.94
2017-04-17T02:13:41.694Z,6.71
2017-04-17T02:14:43.116Z,6.61
2017-04-17T02:15:44.542Z,6.56
2017-04-17T02:16:45.964Z,6.53
2017-04-17T02:17:47.384Z,6.38
2017-04-17T02:18:48.804Z,6.09
2017-04-17T02:19:50.226Z,6.40
2017-04-17T02:20:51.645Z,6.41
2017-04-17T02:21:53.069Z,6.46
2017-04-17T02:22:54.490Z,6.35
2017-04-17T02:23:55.920Z,6.22
2017-04-17T02:24:57.337Z,6.38
2017-04-17T02:25:58.757Z,6.30
2017-04-17T02:27:00.178Z,6.21
2017-04-17T02:28:01.596Z,6.10
2017-04-17T02:29:03.014Z,6.22
2017-04-17T02:30:04.444Z,6.29
2017-04-17T02:31:05.866Z,6.28
2017-04-17T02:32:07.283Z,6.26
2017-04-17T02:33:08.706Z,6.21
2017-04-17T02:34:10.129Z,6.32
2017-04-17T02:35:11.540Z,6.48
2017-04-17T02:36:12.966Z,6.51
2017-04-17T02:37:14.334Z,6.30
2017-04-17T02:38:15.759Z,6.54
2017-04-17T02:39:17.185Z,6.44
2017-04-17T02:40:18.603Z,6.48
2017-04-17T02:41:20.032Z,6.51
2017-04-17T02:42:21.444Z,6.63
2017-04-17T02:43:22.867Z,6.48
2017-04-17T02:44:24.286Z,6.47
2017-04-17T02:45:25.720Z,6.18
2017-04-17T02:46:27.140Z,6.41
2017-04-17T02:47:28.567Z,6.38
2017-04-17T02:48:29.992Z,6.38
2017-04-17T02:49:31.415Z,6.56
2017-04-17T02:50:32.833Z,6.51
2017-04-17T02:51:34.258Z,6.29
2017-04-17T02:52:35.726Z,6.36
2017-04-17T02:53:37.154Z,6.46
2017-04-17T02:54:38.581Z,6.10
2017-04-17T02:55:39.997Z,6.07
2017-04-17T02:56:41.472Z,6.28
2017-04-17T02:57:42.893Z,6.16
2017-04-17T02:58:44.311Z,6.19
2017-04-17T02:59:45.740Z,6.30
2017-04-17T03:00:47.167Z,6.09
2017-04-17T03:01:48.583Z,6.22
2017-04-17T03:02:50.005Z,6.36
2017-04-17T03:03:51.423Z,6.29
2017-04-17T03:04:52.856Z,6.40
2017-04-17T03:05:54.273Z,6.35
2017-04-17T03:06:55.687Z,6.22
2017-04-17T03:07:57.115Z,6.13
2017-04-17T03:08:58.545Z,6.04
2017-04-17T03:09:59.972Z,6.13
2017-04-17T03:11:01.384Z,6.03
2017-04-17T03:12:02.804Z,5.82
2017-04-17T03:13:04.223Z,6.10
2017-04-17T03:14:05.642Z,5.92
2017-04-17T03:15:07.057Z,6.01
2017-04-17T03:16:08.479Z,6.35
2017-04-17T03:17:09.900Z,6.18
2017-04-17T03:18:11.314Z,6.10
2017-04-17T03:19:12.738Z,5.93
2017-04-17T03:20:14.156Z,5.96
2017-04-17T03:21:15.578Z,6.09
2017-04-17T03:22:16.951Z,6.04
2017-04-17T03:23:18.374Z,6.25
2017-04-17T03:24:19.804Z,6.35
2017-04-17T03:25:21.222Z,6.07
2017-04-17T03:26:22.644Z,6.10
2017-04-17T03:27:24.063Z,6.32
2017-04-17T03:28:25.487Z,6.13
2017-04-17T03:29:26.908Z,6.04
2017-04-17T03:30:28.335Z,6.00
2017-04-17T03:31:29.754Z,5.96
2017-04-17T03:32:31.171Z,6.11
2017-04-17T03:33:32.592Z,6.04
2017-04-17T03:34:34.018Z,6.01
2017-04-17T03:35:35.436Z,6.06
2017-04-17T03:36:36.857Z,6.04
2017-04-17T03:37:38.281Z,6.10
2017-04-17T03:38:39.709Z,5.68
2017-04-17T03:39:41.133Z,5.66
2017-04-17T03:40:42.562Z,5.73
2017-04-17T03:41:43.978Z,5.95
2017-04-17T03:42:45.411Z,6.21
2017-04-17T03:43:46.835Z,6.00
2017-04-17T03:44:48.255Z,6.04
2017-04-17T03:45:49.677Z,5.93
2017-04-17T03:46:51.102Z,5.98
2017-04-17T03:47:52.526Z,6.01
2017-04-17T03:48:53.946Z,5.95
2017-04-17T03:49:55.372Z,6.01
2017-04-17T03:50:56.790Z,5.95
2017-04-17T03:51:58.211Z,5.86
2017-04-17T03:52:59.632Z,5.92
2017-04-17T03:54:01.056Z,6.04
2017-04-17T03:55:02.476Z,5.93
2017-04-17T03:56:03.900Z,6.07
2017-04-17T03:57:05.317Z,6.32
2017-04-17T03:58:06.741Z,6.32
2017-04-17T03:59:08.154Z,6.38
2017-04-17T04:00:09.585Z,6.29
2017-04-17T04:01:11.008Z,6.10
2017-04-17T04:02:12.423Z,5.95
2017-04-17T04:03:13.850Z,6.03
2017-04-17T04:04:15.278Z,5.85
2017-04-17T04:05:16.696Z,6.07
2017-04-17T04:06:18.116Z,6.00
2017-04-17T04:07:19.540Z,5.75
2017-04-17T04:08:20.964Z,5.83
2017-04-17T04:09:22.386Z,5.83
2017-04-17T04:10:23.807Z,5.67
2017-04-17T04:11:25.228Z,5.82
2017-04-17T04:12:26.649Z,5.91
2017-04-17T04:13:28.071Z,6.00
2017-04-17T04:14:29.498Z,6.04
2017-04-17T04:15:30.914Z,6.09
2017-04-17T04:16:32.334Z,6.18
2017-04-17T04:17:33.755Z,6.40
2017-04-17T04:18:35.174Z,6.56
2017-04-17T04:19:36.600Z,6.61
2017-04-17T04:20:38.018Z,6.41
2017-04-17T04:21:39.438Z,6.09
2017-04-17T04:22:40.859Z,6.33
2017-04-17T04:23:42.278Z,6.47
2017-04-17T04:24:43.713Z,6.35
2017-04-17T04:25:45.135Z,6.04
2017-04-17T04:26:46.563Z,6.18
2017-04-17T04:27:47.978Z,6.33
2017-04-17T04:28:49.410Z,6.16
2017-04-17T04:29:50.840Z,6.07
2017-04-17T04:30:52.274Z,6.29
2017-04-17T04:31:53.688Z,6.10
2017-04-17T04:32:55.108Z,5.93
2017-04-17T04:33:56.530Z,6.11
2017-04-17T04:34:57.951Z,6.06
2017-04-17T04:35:59.365Z,6.00
2017-04-17T04:37:00.826Z,5.92
2017-04-17T04:38:02.249Z,5.86
2017-04-17T04:39:03.685Z,5.89
2017-04-17T04:40:05.096Z,5.91
2017-04-17T04:41:06.517Z,6.09
2017-04-17T04:42:07.938Z,6.01
2017-04-17T04:43:09.358Z,5.75
2017-04-17T04:44:10.775Z,5.85
2017-04-17T04:45:12.200Z,5.86
2017-04-17T04:46:13.618Z,6.03
2017-04-17T04:47:15.042Z,6.09
2017-04-17T04:48:16.466Z,6.04
2017-04-17T04:49:17.894Z,5.95
2017-04-17T04:50:19.320Z,6.01
2017-04-17T04:51:20.735Z,5.92
2017-04-17T04:52:22.157Z,5.98
2017-04-17T04:53:23.576Z,6.01
2017-04-17T04:54:24.998Z,5.82
2017-04-17T04:55:26.417Z,5.71
2017-04-17T04:56:27.837Z,5.81
2017-04-17T04:57:29.261Z,5.88
2017-04-17T04:58:30.678Z,5.85
2017-04-17T04:59:32.097Z,5.82
2017-04-17T05:00:33.524Z,5.85
2017-04-17T05:01:34.944Z,5.74
2017-04-17T05:02:36.364Z,5.59
2017-04-17T05:03:37.792Z,5.52
2017-04-17T05:04:39.222Z,5.48
2017-04-17T05:05:40.636Z,5.48
2017-04-17T05:06:42.054Z,5.40
2017-04-17T05:07:43.481Z,5.34
2017-04-17T05:08:44.903Z,5.23
2017-04-17T05:09:46.317Z,4.99
2017-04-17T05:10:47.742Z,4.91
2017-04-17T05:11:49.167Z,4.83
2017-04-17T05:12:50.589Z,4.95
2017-04-17T05:13:52.012Z,4.76
2017-04-17T05:14:53.503Z,4.92
2017-04-17T05:15:54.922Z,5.01
2017-04-17T05:16:56.345Z,4.98
2017-04-17T05:17:57.772Z,4.95
2017-04-17T05:18:59.282Z,5.16
2017-04-17T05:20:00.703Z,5.10
2017-04-17T05:21:02.131Z,5.17
2017-04-17T05:22:04.379Z,5.23
2017-04-17T05:23:05.806Z,5.38
2017-04-17T05:24:07.225Z,5.37
2017-04-17T05:25:08.653Z,5.35
2017-04-17T05:26:10.071Z,5.55
2017-04-17T05:27:11.501Z,5.25
2017-04-17T05:28:12.933Z,5.19
2017-04-17T05:29:14.360Z,5.19
2017-04-17T05:30:15.792Z,5.43
2017-04-17T05:31:17.213Z,5.22
2017-04-17T05:32:18.631Z,5.32
2017-04-17T05:33:20.064Z,5.37
2017-04-17T05:34:21.485Z,5.35
2017-04-17T05:35:22.910Z,5.41
2017-04-17T05:36:24.334Z,5.35
2017-04-17T05:37:25.758Z,5.37
2017-04-17T05:38:27.181Z,5.38
2017-04-17T05:39:28.603Z,5.49
2017-04-17T05:40:30.026Z,5.46
2017-04-17T05:41:31.459Z,5.48
2017-04-17T05:42:32.887Z,5.35
2017-04-17T05:43:34.308Z,5.63
2017-04-17T05:44:35.733Z,5.48
2017-04-17T05:45:37.157Z,5.43
2017-04-17T05:46:38.585Z,5.34
2017-04-17T05:47:40.009Z,4.99
2017-04-17T05:48:41.430Z,5.01
2017-04-17T05:49:42.852Z,5.12
2017-04-17T05:50:44.274Z,5.22
2017-04-17T05:51:45.700Z,5.14
2017-04-17T05:52:47.125Z,5.20
2017-04-17T05:53:48.547Z,5.07
2017-04-17T05:54:49.987Z,5.17
2017-04-17T05:55:51.399Z,5.50
2017-04-17T05:56:52.819Z,5.50
2017-04-17T05:57:54.241Z,5.74
2017-04-17T05:58:55.668Z,5.66
2017-04-17T05:59:57.089Z,5.35
2017-04-17T06:00:58.513Z,5.48
2017-04-17T06:01:59.935Z,5.67
2017-04-17T06:03:01.362Z,5.75
2017-04-17T06:04:02.779Z,5.55
2017-04-17T06:05:04.210Z,5.55
2017-04-17T06:06:05.643Z,5.64
2017-04-17T06:07:07.073Z,5.60
2017-04-17T06:08:08.501Z,5.53
2017-04-17T06:09:09.929Z,5.35
2017-04-17T06:10:11.351Z,5.37
2017-04-17T06:11:12.770Z,5.32
2017-04-17T06:12:14.199Z,5.23
2017-04-17T06:13:15.620Z,5.49
2017-04-17T06:14:17.052Z,5.56
2017-04-17T06:15:18.478Z,5.68
2017-04-17T06:16:19.901Z,5.40
2017-04-17T06:17:21.326Z,5.66
2017-04-17T06:18:22.752Z,5.52
2017-04-17T06:19:24.171Z,5.59
2017-04-17T06:20:25.603Z,5.37
2017-04-17T06:21:27.036Z,5.20
2017-04-17T06:22:28.447Z,5.17
2017-04-17T06:23:29.875Z,5.07
2017-04-17T06:24:31.298Z,5.13
2017-04-17T06:25:32.715Z,5.27
2017-04-17T06:26:34.144Z,5.19
2017-04-17T06:27:35.564Z,5.13
2017-04-17T06:28:36.983Z,5.17
2017-04-17T06:29:38.403Z,5.02
2017-04-17T06:30:39.829Z,5.25
2017-04-17T06:31:41.253Z,5.55
2017-04-17T06:32:42.678Z,5.59
2017-04-17T06:33:44.100Z,5.71
2017-04-17T06:34:45.520Z,5.85
2017-04-17T06:35:46.941Z,5.70
2017-04-17T06:36:48.360Z,5.88
2017-04-17T06:37:49.780Z,5.71
2017-04-17T06:38:51.201Z,5.86
2017-04-17T06:39:52.632Z,6.00
2017-04-17T06:40:54.051Z,5.85
2017-04-17T06:41:55.475Z,5.86
2017-04-17T06:42:56.902Z,6.11
2017-04-17T06:43:58.318Z,6.01
2017-04-17T06:44:59.738Z,6.13
2017-04-17T06:46:01.163Z,6.25
2017-04-17T06:47:02.589Z,6.11
2017-04-17T06:48:04.027Z,6.06
2017-04-17T06:49:05.452Z,6.00
2017-04-17T06:50:06.881Z,5.60
2017-04-17T06:51:08.301Z,5.45
2017-04-17T06:52:09.795Z,5.71
2017-04-17T06:53:11.215Z,5.66
2017-04-17T06:54:12.638Z,5.83
2017-04-17T06:55:14.069Z,5.89
2017-04-17T06:56:15.492Z,5.41
2017-04-17T06:57:16.921Z,5.34
2017-04-17T06:58:18.348Z,5.45
2017-04-17T06:59:19.770Z,5.45
2017-04-17T07:00:21.321Z,6.00
2017-04-17T07:01:22.702Z,6.26
2017-04-17T07:02:24.133Z,6.56
2017-04-17T07:03:25.564Z,6.30
2017-04-17T07:04:26.993Z,6.25
2017-04-17T07:05:28.424Z,6.41
2017-04-17T07:06:29.903Z,6.43
2017-04-17T07:07:31.405Z,6.35
2017-04-17T07:08:32.829Z,6.40
2017-04-17T07:09:34.263Z,6.35
2017-04-17T07:10:35.781Z,6.50
2017-04-17T07:11:37.214Z,6.68
2017-04-17T07:12:38.634Z,6.76
2017-04-17T07:13:40.073Z,6.76
2017-04-17T07:14:41.493Z,6.80
2017-04-17T07:15:42.922Z,6.80
2017-04-17T07:16:44.352Z,7.15
2017-04-17T07:17:45.780Z,6.81
2017-04-17T07:18:47.215Z,6.68
2017-04-17T07:19:48.642Z,6.54
2017-04-17T07:20:50.071Z,6.47
2017-04-17T07:21:51.493Z,6.80
2017-04-17T07:22:52.879Z,6.81
2017-04-17T07:23:54.300Z,6.66
2017-04-17T07:24:55.741Z,6.61
2017-04-17T07:25:57.164Z,6.81
2017-04-17T07:26:58.590Z,6.95
2017-04-17T07:28:00.019Z,6.87
2017-04-17T07:29:01.452Z,6.90
2017-04-17T07:30:02.879Z,6.86
2017-04-17T07:31:04.310Z,7.15
2017-04-17T07:32:05.730Z,7.07
2017-04-17T07:33:07.941Z,7.45
2017-04-17T07:34:09.362Z,7.59
2017-04-17T07:35:10.786Z,7.44
2017-04-17T07:36:12.212Z,7.34
2017-04-17T07:37:13.641Z,7.40
2017-04-17T07:38:15.068Z,7.45
2017-04-17T07:39:16.498Z,7.29
2017-04-17T07:40:17.920Z,7.29
2017-04-17T07:41:19.340Z,7.56
2017-04-17T07:42:20.775Z,7.93
2017-04-17T07:43:22.206Z,7.82
2017-04-17T07:44:23.643Z,7.81
2017-04-17T07:45:25.064Z,7.66
2017-04-17T07:46:26.484Z,7.58
2017-04-17T07:47:27.917Z,7.74
2017-04-17T07:48:29.360Z,7.84
2017-04-17T07:49:30.783Z,7.60
2017-04-17T07:50:32.212Z,7.62
2017-04-17T07:51:33.641Z,7.67
2017-04-17T07:52:35.071Z,7.62
2017-04-17T07:53:36.494Z,7.35
2017-04-17T07:54:37.913Z,7.08
2017-04-17T07:55:39.335Z,6.69
2017-04-17T07:56:40.762Z,7.05
2017-04-17T07:57:43.172Z,7.32
2017-04-17T07:58:44.599Z,7.38
2017-04-17T07:59:46.026Z,7.41
2017-04-17T08:00:47.496Z,7.38
2017-04-17T08:01:48.927Z,7.47
2017-04-17T08:02:50.347Z,7.20
2017-04-17T08:03:51.779Z,7.22
2017-04-17T08:04:53.207Z,7.16
2017-04-17T08:05:54.627Z,7.40
2017-04-17T08:06:56.052Z,7.71
2017-04-17T08:07:57.486Z,7.53
2017-04-17T08:08:58.920Z,7.63
2017-04-17T08:10:00.346Z,7.69
2017-04-17T08:11:01.773Z,7.47
2017-04-17T08:12:03.202Z,7.37
2017-04-17T08:13:04.626Z,7.59
2017-04-17T08:14:06.057Z,7.35
2017-04-17T08:15:07.482Z,7.32
2017-04-17T08:16:08.912Z,7.56
2017-04-17T08:17:10.334Z,7.62
2017-04-17T08:18:11.769Z,7.40
2017-04-17T08:19:13.190Z,7.32
2017-04-17T08:20:14.641Z,7.40
2017-04-17T08:21:16.074Z,7.24
2017-04-17T08:22:17.500Z,7.38
2017-04-17T08:23:18.946Z,7.59
2017-04-17T08:24:20.368Z,7.71
2017-04-17T08:25:21.792Z,7.60
2017-04-17T08:26:23.224Z,7.79
2017-04-17T08:27:24.654Z,7.55
2017-04-17T08:28:26.081Z,7.63
2017-04-17T08:29:27.506Z,7.72
2017-04-17T08:30:28.943Z,7.93
2017-04-17T08:31:30.371Z,8.03
2017-04-17T08:32:31.801Z,7.87
2017-04-17T08:33:33.232Z,7.97
2017-04-17T08:34:34.670Z,7.96
2017-04-17T08:35:36.086Z,7.93
2017-04-17T08:36:37.514Z,7.77
2017-04-17T08:37:38.947Z,7.92
2017-04-17T08:38:40.382Z,8.03
2017-04-17T08:39:41.807Z,7.89
2017-04-17T08:40:43.231Z,7.82
2017-04-17T08:41:44.665Z,7.72
2017-04-17T08:42:46.090Z,7.75
2017-04-17T08:43:47.514Z,7.85
2017-04-17T08:44:48.950Z,7.63
2017-04-17T08:45:50.373Z,7.59
2017-04-17T08:46:52.700Z,7.52
2017-04-17T08:47:54.134Z,7.44
2017-04-17T08:48:55.554Z,7.60
2017-04-17T08:49:56.983Z,7.67
2017-04-17T08:50:58.414Z,7.56
2017-04-17T08:51:59.841Z,7.52
2017-04-17T08:53:01.267Z,7.37
2017-04-17T08:54:02.692Z,7.59
2017-04-17T08:55:04.124Z,7.55
2017-04-17T08:56:05.554Z,7.77
2017-04-17T08:57:06.981Z,8.07
2017-04-17T08:58:08.401Z,8.02
2017-04-17T08:59:09.840Z,8.18
2017-04-17T09:00:11.265Z,8.22
2017-04-17T09:01:12.693Z,8.65
2017-04-17T09:02:14.127Z,8.69
2017-04-17T09:03:15.577Z,8.54
2017-04-17T09:04:17.001Z,8.84
2017-04-17T09:05:18.441Z,9.05
2017-04-17T09:06:19.867Z,9.02
2017-04-17T09:07:21.300Z,9.43
2017-04-17T09:08:22.733Z,9.06
2017-04-17T09:09:24.165Z,8.94
2017-04-17T09:10:25.605Z,9.06
2017-04-17T09:11:27.651Z,9.09
2017-04-17T09:12:29.079Z,9.18
2017-04-17T09:13:31.215Z,9.01
2017-04-17T09:14:32.647Z,8.94
2017-04-17T09:15:34.077Z,9.10
2017-04-17T09:16:35.504Z,8.96
2017-04-17T09:17:36.941Z,9.21
2017-04-17T09:18:38.365Z,8.93
2017-04-17T09:19:39.821Z,8.83
2017-04-17T09:20:41.251Z,8.72
2017-04-17T09:21:42.678Z,8.81
2017-04-17T09:22:44.103Z,8.88
2017-04-17T09:23:45.534Z,9.01
2017-04-17T09:24:46.964Z,9.16
2017-04-17T09:25:48.394Z,9.45
2017-04-17T09:26:49.825Z,9.52
2017-04-17T09:27:51.260Z,9.35
2017-04-17T09:28:52.681Z,9.76
2017-04-17T09:29:54.112Z,9.83
2017-04-17T09:30:55.550Z,9.97
2017-04-17T09:31:56.989Z,9.81
2017-04-17T09:32:58.420Z,10.01
2017-04-17T09:33:59.851Z,10.17
2017-04-17T09:35:01.282Z,10.04
2017-04-17T09:36:02.716Z,10.00
2017-04-17T09:37:04.145Z,10.04
2017-04-17T09:38:05.575Z,9.97
2017-04-17T09:39:07.007Z,9.97
2017-04-17T09:40:08.426Z,9.81
2017-04-17T09:41:09.870Z,9.79
2017-04-17T09:42:11.250Z,9.89
2017-04-17T09:43:12.673Z,9.93
2017-04-17T09:44:14.105Z,10.00
2017-04-17T09:45:15.535Z,9.99
2017-04-17T09:46:16.966Z,9.70
2017-04-17T09:47:18.407Z,9.73
2017-04-17T09:48:19.856Z,9.57
2017-04-17T09:49:21.287Z,9.50
2017-04-17T09:50:22.723Z,9.53
2017-04-17T09:51:24.148Z,9.73
2017-04-17T09:52:25.586Z,9.66
2017-04-17T09:53:27.014Z,9.66
2017-04-17T09:54:28.437Z,9.76
2017-04-17T09:55:29.866Z,9.73
2017-04-17T09:56:31.293Z,9.96
2017-04-17T09:57:32.728Z,10.19
2017-04-17T09:58:34.157Z,10.34
2017-04-17T09:59:35.593Z,10.33
2017-04-17T10:00:37.034Z,10.43
2017-04-17T10:01:38.462Z,10.55
2017-04-17T10:02:39.901Z,10.68
2017-04-17T10:03:41.283Z,10.88
2017-04-17T10:04:42.712Z,10.89
2017-04-17T10:05:44.147Z,10.65
2017-04-17T10:06:45.573Z,10.44
2017-04-17T10:07:47.005Z,10.17
2017-04-17T10:08:48.438Z,10.24
2017-04-17T10:09:49.874Z,9.93
2017-04-17T10:10:51.305Z,9.83
2017-04-17T10:11:52.732Z,10.01
2017-04-17T10:12:54.162Z,9.81
2017-04-17T10:13:55.554Z,9.82
2017-04-17T10:14:56.987Z,9.78
2017-04-17T10:15:58.411Z,9.85
2017-04-17T10:16:59.861Z,9.79
2017-04-17T10:18:01.273Z,9.73
2017-04-17T10:19:02.702Z,9.64
2017-04-17T10:20:04.130Z,9.63
2017-04-17T10:21:05.559Z,9.52
2017-04-17T10:22:06.988Z,9.78
2017-04-17T10:23:08.415Z,9.99
2017-04-17T10:24:09.847Z,10.39
2017-04-17T10:25:11.284Z,10.37
2017-04-17T10:26:12.711Z,10.58
2017-04-17T10:27:14.137Z,10.42
2017-04-17T10:28:15.573Z,10.59
2017-04-17T10:29:17.006Z,11.10
2017-04-17T10:30:18.444Z,11.19
2017-04-17T10:31:19.870Z,11.19
2017-04-17T10:32:21.305Z,10.78
2017-04-17T10:33:22.736Z,10.80
2017-04-17T10:34:24.185Z,11.01
2017-04-17T10:35:25.620Z,11.34
2017-04-17T10:36:27.051Z,11.64
2017-04-17T10:37:28.482Z,11.29
2017-04-17T10:38:29.922Z,11.56
2017-04-17T10:39:31.360Z,11.27
2017-04-17T10:40:32.796Z,11.13
2017-04-17T10:41:34.237Z,11.14
2017-04-17T10:42:35.663Z,10.70
2017-04-17T10:43:37.104Z,10.63
2017-04-17T10:44:38.543Z,10.40
2017-04-17T10:45:39.982Z,10.14
2017-04-17T10:46:41.418Z,9.83
2017-04-17T10:47:42.851Z,9.70
2017-04-17T10:48:44.277Z,9.68
2017-04-17T10:49:45.712Z,9.93
2017-04-17T10:50:47.204Z,10.52
2017-04-17T10:51:48.632Z,10.95
2017-04-17T10:52:50.054Z,11.11
2017-04-17T10:53:51.483Z,11.35
2017-04-17T10:54:52.909Z,11.50
2017-04-17T10:55:54.335Z,11.57
2017-04-17T10:56:55.846Z,11.80
2017-04-17T10:57:57.284Z,12.01
2017-04-17T10:58:58.719Z,11.97
2017-04-17T11:00:00.148Z,11.38
2017-04-17T11:01:01.577Z,11.16
2017-04-17T11:02:03.012Z,11.01
2017-04-17T11:03:04.439Z,11.01
2017-04-17T11:04:05.880Z,10.95
2017-04-17T11:05:07.435Z,10.55
2017-04-17T11:06:08.870Z,10.39
2017-04-17T11:07:10.298Z,10.91
2017-04-17T11:08:11.726Z,11.29
2017-04-17T11:09:13.166Z,11.54
2017-04-17T11:10:14.594Z,11.83
2017-04-17T11:11:16.023Z,11.97
2017-04-17T11:12:17.547Z,11.90
2017-04-17T11:13:19.568Z,11.61
2017-04-17T11:14:20.365Z,11.29
2017-04-17T11:15:21.804Z,11.19
2017-04-17T11:16:23.458Z,11.38
2017-04-17T11:17:25.069Z,11.46
2017-04-17T11:18:26.504Z,11.32
2017-04-17T11:19:27.938Z,11.38
2017-04-17T11:20:29.371Z,11.29
2017-04-17T11:21:30.802Z,10.94
2017-04-17T11:22:32.233Z,10.73
2017-04-17T11:23:33.668Z,10.78
2017-04-17T11:24:35.093Z,10.99
2017-04-17T11:25:36.536Z,11.29
2017-04-17T11:26:37.970Z,11.53
2017-04-17T11:27:39.407Z,11.89
2017-04-17T11:28:40.838Z,11.77
2017-04-17T11:29:42.272Z,11.77
2017-04-17T11:30:43.706Z,11.94
2017-04-17T11:31:45.154Z,11.93
2017-04-17T11:32:46.579Z,11.65
2017-04-17T11:33:48.008Z,11.75
2017-04-17T11:34:49.438Z,11.52
2017-04-17T11:35:50.884Z,11.75
2017-04-17T11:36:52.308Z,11.64
2017-04-17T11:37:53.741Z,11.32
2017-04-17T11:38:55.169Z,11.27
2017-04-17T11:39:56.605Z,11.36
2017-04-17T11:40:58.040Z,11.64
2017-04-17T11:41:59.475Z,11.54
2017-04-17T11:43:00.902Z,11.56
2017-04-17T11:44:02.339Z,11.68
2017-04-17T11:45:03.767Z,11.53
2017-04-17T11:46:05.205Z,11.50
2017-04-17T11:47:06.642Z,11.59
2017-04-17T11:48:08.069Z,11.75
2017-04-17T11:49:09.564Z,11.78
2017-04-17T11:50:11.006Z,12.02
2017-04-17T11:51:12.432Z,12.41
2017-04-17T11:52:13.873Z,12.27
2017-04-17T11:53:15.299Z,12.33
2017-04-17T11:54:16.739Z,12.57
2017-04-17T11:55:18.749Z,12.54
2017-04-17T11:56:20.185Z,12.74
2017-04-17T11:57:21.619Z,12.56
2017-04-17T11:58:23.042Z,12.23
2017-04-17T11:59:24.425Z,12.24
2017-04-17T12:00:25.856Z,12.56
2017-04-17T12:01:27.289Z,12.56
2017-04-17T12:02:28.715Z,12.56
2017-04-17T12:03:30.147Z,12.46
2017-04-17T12:04:31.580Z,12.16
2017-04-17T12:05:33.011Z,11.97
2017-04-17T12:06:34.445Z,11.64
2017-04-17T12:07:35.875Z,11.36
2017-04-17T12:08:37.310Z,11.24
2017-04-17T12:09:38.703Z,11.16
2017-04-17T12:10:40.128Z,10.94
2017-04-17T12:11:41.564Z,11.09
2017-04-17T12:12:42.999Z,10.99
2017-04-17T12:13:44.435Z,11.32
2017-04-17T12:14:45.868Z,11.57
2017-04-17T12:15:47.302Z,12.04
2017-04-17T12:16:48.726Z,12.21
2017-04-17T12:17:50.155Z,12.16
2017-04-17T12:18:51.591Z,12.52
2017-04-17T12:19:53.026Z,12.79
2017-04-17T12:20:54.457Z,12.93
2017-04-17T12:21:55.886Z,13.38
2017-04-17T12:22:57.314Z,13.22
2017-04-17T12:23:58.743Z,13.51
2017-04-17T12:25:00.188Z,12.97
2017-04-17T12:26:01.628Z,12.99
2017-04-17T12:27:03.059Z,12.78
2017-04-17T12:28:04.495Z,12.77
2017-04-17T12:29:05.938Z,12.33
2017-04-17T12:30:07.369Z,12.34
2017-04-17T12:31:09.691Z,12.59
2017-04-17T12:32:11.127Z,12.75
2017-04-17T12:33:12.553Z,12.78
2017-04-17T12:34:13.984Z,12.81
2017-04-17T12:35:15.416Z,12.69
2017-04-17T12:36:16.845Z,12.13
2017-04-17T12:37:18.276Z,11.75
2017-04-17T12:38:19.720Z,11.52
2017-04-17T12:39:21.156Z,12.06
2017-04-17T12:40:22.588Z,12.33
2017-04-17T12:41:24.020Z,12.78
2017-04-17T12:42:25.488Z,12.84
2017-04-17T12:43:26.927Z,13.00
2017-04-17T12:44:28.348Z,13.07
2017-04-17T12:45:29.775Z,13.20
2017-04-17T12:46:31.208Z,13.21
2017-04-17T12:47:32.639Z,13.18
2017-04-17T12:48:34.067Z,13.41
2017-04-17T12:49:36.055Z,13.40
2017-04-17T12:50:37.493Z,13.33
2017-04-17T12:51:38.933Z,12.97
2017-04-17T12:52:40.366Z,12.88
2017-04-17T12:53:41.797Z,12.89
2017-04-17T12:54:43.228Z,12.99
2017-04-17T12:55:44.651Z,12.89
2017-04-17T12:56:46.090Z,12.82
2017-04-17T12:57:47.534Z,12.48
2017-04-17T12:58:48.965Z,12.21
2017-04-17T12:59:50.403Z,11.90
2017-04-17T13:00:51.833Z,11.83
2017-04-17T13:01:53.263Z,11.78
2017-04-17T13:02:54.696Z,11.53
2017-04-17T13:03:56.125Z,11.47
2017-04-17T13:04:57.556Z,11.32
2017-04-17T13:05:58.983Z,11.21
2017-04-17T13:07:00.413Z,11.36
2017-04-17T13:08:01.840Z,11.46
2017-04-17T13:09:03.270Z,11.34
2017-04-17T13:10:04.695Z,11.14
2017-04-17T13:11:06.127Z,11.11
2017-04-17T13:12:07.560Z,10.95
2017-04-17T13:13:09.002Z,11.10
2017-04-17T13:14:10.437Z,11.13
2017-04-17T13:15:11.864Z,10.86
2017-04-17T13:16:13.290Z,10.78
2017-04-17T13:17:14.728Z,10.78
2017-04-17T13:18:16.161Z,10.84
2017-04-17T13:19:17.591Z,11.16
2017-04-17T13:20:19.026Z,11.61
2017-04-17T13:21:20.451Z,12.20
2017-04-17T13:22:21.889Z,12.45
2017-04-17T13:23:23.330Z,12.77
2017-04-17T13:24:24.772Z,12.79
2017-04-17T13:25:26.202Z,12.81
2017-04-17T13:26:27.718Z,12.97
2017-04-17T13:27:29.152Z,13.14
2017-04-17T13:28:30.603Z,13.37
2017-04-17T13:29:32.036Z,13.88
2017-04-17T13:30:33.524Z,13.98